createdAt,value
2023-01-04T00:01:55.481Z,12.30
2023-01-04T00:04:22.314Z,12.30
2023-01-04T00:06:49.197Z,12.30
2023-01-04T00:09:16.053Z,12.30
2023-01-04T00:11:42.879Z,12.30
2023-01-04T00:14:10.961Z,12.30
2023-01-04T00:16:38.016Z,12.30
2023-01-04T00:19:04.939Z,12.30
2023-01-04T00:21:31.999Z,12.40
2023-01-04T00:24:00.872Z,12.40
2023-01-04T00:26:30.880Z,12.40
2023-01-04T00:29:00.762Z,12.40
2023-01-04T00:31:28.816Z,12.30
2023-01-04T00:33:57.724Z,12.30
2023-01-04T00:36:25.324Z,12.30
2023-01-04T00:39:07.716Z,12.30
2023-01-04T00:44:27.028Z,12.30
2023-01-04T00:46:54.113Z,12.30
2023-01-04T00:49:21.083Z,12.30
2023-01-04T00:51:47.934Z,12.30
2023-01-04T00:54:16.634Z,12.30
2023-01-04T00:56:43.918Z,12.40
2023-01-04T00:59:13.278Z,12.40
2023-01-04T01:01:41.455Z,12.40
2023-01-04T01:04:12.418Z,12.30
2023-01-04T01:06:39.491Z,12.30
2023-01-04T01:09:06.951Z,12.30
2023-01-04T01:11:36.589Z,12.30
2023-01-04T01:14:05.118Z,12.30
2023-01-04T01:16:54.516Z,12.30
2023-01-04T01:19:18.876Z,12.30
2023-01-04T01:21:45.726Z,12.30
2023-01-04T01:24:19.281Z,12.30
2023-01-04T01:26:46.358Z,12.40
2023-01-04T01:29:13.390Z,12.30
2023-01-04T01:31:41.139Z,12.30
2023-01-04T01:34:08.699Z,12.30
2023-01-04T01:36:36.477Z,12.30
2023-01-04T01:39:05.578Z,12.40
2023-01-04T01:41:34.480Z,12.40
2023-01-04T01:44:01.271Z,12.40
2023-01-04T01:46:52.268Z,12.40
2023-01-04T01:49:31.077Z,12.40
2023-01-04T01:52:01.874Z,12.40
2023-01-04T01:54:41.035Z,12.40
2023-01-04T01:57:13.693Z,12.40
2023-01-04T01:59:44.137Z,12.40
2023-01-04T02:02:11.610Z,12.40
2023-01-04T02:04:41.660Z,12.40
2023-01-04T02:07:10.956Z,12.50
2023-01-04T02:09:38.088Z,12.40
2023-01-04T02:12:05.269Z,12.50
2023-01-04T02:14:32.109Z,12.50
2023-01-04T02:17:17.118Z,12.50
2023-01-04T02:19:59.078Z,12.50
2023-01-04T02:22:25.894Z,12.50
2023-01-04T02:25:17.884Z,12.50
2023-01-04T02:27:54.779Z,12.40
2023-01-04T02:30:35.036Z,12.40
2023-01-04T02:33:41.868Z,12.40
2023-01-04T02:37:05.779Z,12.40
2023-01-04T02:39:35.722Z,12.50
2023-01-04T02:42:58.880Z,12.40
2023-01-04T02:45:32.834Z,12.50
2023-01-04T02:48:24.111Z,12.50
2023-01-04T02:50:53.934Z,12.40
2023-01-04T02:53:25.640Z,12.40
2023-01-04T02:56:15.040Z,12.40
2023-01-04T02:59:08.328Z,12.50
2023-01-04T03:02:17.401Z,12.40
2023-01-04T03:05:26.065Z,12.40
2023-01-04T03:08:06.872Z,12.40
2023-01-04T03:10:47.380Z,12.40
2023-01-04T03:13:39.585Z,12.40
2023-01-04T03:16:16.067Z,12.40
2023-01-04T03:18:47.333Z,12.40
2023-01-04T03:21:18.175Z,12.40
2023-01-04T03:24:06.391Z,12.40
2023-01-04T03:27:00.205Z,12.40
2023-01-04T03:29:59.473Z,12.40
2023-01-04T03:32:57.342Z,12.40
2023-01-04T03:35:38.766Z,12.50
2023-01-04T03:38:31.466Z,12.50
2023-01-04T03:41:22.751Z,12.50
2023-01-04T03:44:42.301Z,12.50
2023-01-04T03:47:33.566Z,12.60
2023-01-04T03:50:19.642Z,12.50
2023-01-04T03:52:47.736Z,12.50
2023-01-04T03:55:16.086Z,12.50
2023-01-04T03:57:43.668Z,12.50
2023-01-04T04:00:18.993Z,12.50
2023-01-04T04:02:47.656Z,12.50
2023-01-04T04:05:38.019Z,12.50
2023-01-04T04:08:23.949Z,12.50
2023-01-04T04:10:51.270Z,12.50
2023-01-04T04:13:18.212Z,12.50
2023-01-04T04:15:45.055Z,12.50
2023-01-04T04:18:11.909Z,12.50
2023-01-04T04:20:39.019Z,12.50
2023-01-04T04:23:05.915Z,12.50
2023-01-04T04:25:32.868Z,12.50
2023-01-04T04:27:59.728Z,12.50
2023-01-04T04:30:26.558Z,12.50
2023-01-04T04:32:53.394Z,12.50
2023-01-04T04:35:20.230Z,12.50
2023-01-04T04:37:47.077Z,12.50
2023-01-04T04:40:36.602Z,12.50
2023-01-04T04:43:03.451Z,12.60
2023-01-04T04:45:30.387Z,12.60
2023-01-04T04:47:57.228Z,12.60
2023-01-04T04:50:24.029Z,12.60
2023-01-04T04:52:55.769Z,12.60
2023-01-04T04:55:23.278Z,12.60
2023-01-04T04:57:50.107Z,12.60
2023-01-04T05:00:17.509Z,12.60
2023-01-04T05:02:44.536Z,12.60
2023-01-04T05:05:11.483Z,12.60
2023-01-04T05:07:38.296Z,12.60
2023-01-04T05:10:05.575Z,12.60
2023-01-04T05:12:57.466Z,12.60
2023-01-04T05:15:24.797Z,12.60
2023-01-04T05:17:51.594Z,12.70
2023-01-04T05:20:18.496Z,12.70
2023-01-04T05:22:45.345Z,12.80
2023-01-04T05:25:12.821Z,12.80
2023-01-04T05:27:40.176Z,12.80
2023-01-04T05:30:25.981Z,12.80
2023-01-04T05:32:52.900Z,12.90
2023-01-04T05:35:19.743Z,12.90
2023-01-04T05:37:46.595Z,12.90
2023-01-04T05:40:13.391Z,12.90
2023-01-04T05:42:40.245Z,12.90
2023-01-04T05:45:07.691Z,12.90
2023-01-04T05:47:35.466Z,12.80
2023-01-04T05:50:04.278Z,12.70
2023-01-04T05:52:31.121Z,12.60
2023-01-04T05:54:58.077Z,12.60
2023-01-04T05:57:24.959Z,12.60
2023-01-04T05:59:51.846Z,12.50
2023-01-04T06:02:25.546Z,12.50
2023-01-04T06:04:58.522Z,12.50
2023-01-04T06:07:26.512Z,12.50
2023-01-04T06:09:53.563Z,12.40
2023-01-04T06:12:20.612Z,12.40
2023-01-04T06:14:47.466Z,12.40
2023-01-04T06:17:14.614Z,12.40
2023-01-04T06:19:41.504Z,12.40
2023-01-04T06:22:08.866Z,12.40
2023-01-04T06:24:36.059Z,12.40
2023-01-04T06:27:03.500Z,12.40
2023-01-04T06:29:30.378Z,12.40
2023-01-04T06:31:57.269Z,12.40
2023-01-04T06:34:30.493Z,12.40
2023-01-04T06:36:58.341Z,12.40
2023-01-04T06:39:25.197Z,12.50
2023-01-04T06:41:52.171Z,12.50
2023-01-04T06:44:19.162Z,12.50
2023-01-04T06:46:46.096Z,12.50
2023-01-04T06:49:14.424Z,12.50
2023-01-04T06:51:41.405Z,12.50
2023-01-04T06:54:11.706Z,12.50
2023-01-04T06:56:39.149Z,12.50
2023-01-04T06:59:06.386Z,12.50
2023-01-04T07:01:33.537Z,12.50
2023-01-04T07:04:00.548Z,12.50
2023-01-04T07:06:27.646Z,12.60
2023-01-04T07:08:55.624Z,12.60
2023-01-04T07:11:22.492Z,12.60
2023-01-04T07:13:49.445Z,12.60
2023-01-04T07:16:16.387Z,12.60
2023-01-04T07:18:43.357Z,12.60
2023-01-04T07:21:10.293Z,12.60
2023-01-04T07:23:37.102Z,12.50
2023-01-04T07:26:04.001Z,12.50
2023-01-04T07:28:49.117Z,12.50
2023-01-04T07:31:16.069Z,12.50
2023-01-04T07:33:43.078Z,12.50
2023-01-04T07:36:10.096Z,12.50
2023-01-04T07:38:37.132Z,12.50
2023-01-04T07:41:04.768Z,12.50
2023-01-04T07:43:31.706Z,12.50
2023-01-04T07:45:58.882Z,12.50
2023-01-04T07:48:25.763Z,12.50
2023-01-04T07:50:52.563Z,12.40
2023-01-04T07:53:19.427Z,12.40
2023-01-04T07:55:46.325Z,12.40
2023-01-04T07:58:13.162Z,12.40
2023-01-04T08:00:40.096Z,12.50
2023-01-04T08:03:07.040Z,12.50
2023-01-04T08:05:34.620Z,12.50
2023-01-04T08:08:01.601Z,12.50
2023-01-04T08:10:28.804Z,12.40
2023-01-04T08:12:58.928Z,12.40
2023-01-04T08:15:26.761Z,12.40
2023-01-04T08:17:53.624Z,12.40
2023-01-04T08:20:20.600Z,12.40
2023-01-04T08:22:47.398Z,12.40
2023-01-04T08:25:14.239Z,12.40
2023-01-04T08:27:41.828Z,12.40
2023-01-04T08:30:09.283Z,12.40
2023-01-04T08:32:36.209Z,12.40
2023-01-04T08:35:03.412Z,12.40
2023-01-04T08:37:31.883Z,12.40
2023-01-04T08:39:58.751Z,12.40
2023-01-04T08:42:31.145Z,12.40
2023-01-04T08:45:01.599Z,12.50
2023-01-04T08:47:32.997Z,12.50
2023-01-04T08:50:04.723Z,12.50
2023-01-04T08:52:36.770Z,12.50
2023-01-04T08:55:10.182Z,12.50
2023-01-04T08:57:39.398Z,12.50
2023-01-04T09:00:06.889Z,12.60
2023-01-04T09:02:33.844Z,12.70
2023-01-04T09:05:03.134Z,12.70
2023-01-04T09:07:31.051Z,12.70
2023-01-04T09:09:58.015Z,12.80
2023-01-04T09:12:24.865Z,12.80
2023-01-04T09:14:51.680Z,12.80
2023-01-04T09:17:18.516Z,12.90
2023-01-04T09:19:47.642Z,12.90
2023-01-04T09:22:14.523Z,12.90
2023-01-04T09:24:41.352Z,12.90
2023-01-04T09:27:08.188Z,12.90
2023-01-04T09:29:35.387Z,13.00
2023-01-04T09:32:02.449Z,13.00
2023-01-04T09:34:29.410Z,13.00
2023-01-04T09:36:56.336Z,13.00
2023-01-04T09:39:26.305Z,13.00
2023-01-04T09:42:06.492Z,13.10
2023-01-04T09:47:44.117Z,13.10
2023-01-04T09:50:16.601Z,13.10
2023-01-04T09:52:59.473Z,13.10
2023-01-04T09:55:40.835Z,13.20
2023-01-04T09:58:16.885Z,13.20
2023-01-04T10:01:00.459Z,13.20
2023-01-04T10:03:36.669Z,13.20
2023-01-04T10:06:03.880Z,13.30
2023-01-04T10:08:33.496Z,13.30
2023-01-04T10:11:06.179Z,13.30
2023-01-04T10:14:00.648Z,13.40
2023-01-04T10:17:14.118Z,13.40
2023-01-04T10:22:42.127Z,13.50
2023-01-04T10:25:14.660Z,13.50
2023-01-04T10:27:59.684Z,13.40
2023-01-04T10:30:38.257Z,13.50
2023-01-04T10:33:16.435Z,13.50
2023-01-04T10:35:48.334Z,13.50
2023-01-04T10:38:24.601Z,13.60
2023-01-04T10:40:52.183Z,13.60
2023-01-04T10:44:09.744Z,13.60
2023-01-04T10:46:28.928Z,13.70
2023-01-04T10:49:33.852Z,13.70
2023-01-04T10:52:10.807Z,14.00
2023-01-04T10:55:00.052Z,14.10
2023-01-04T10:57:31.169Z,14.10
2023-01-04T11:00:07.319Z,14.00
2023-01-04T11:02:52.650Z,13.90
2023-01-04T11:05:25.593Z,13.90
2023-01-04T11:08:16.302Z,13.90
2023-01-04T11:10:50.688Z,14.00
2023-01-04T11:13:17.812Z,14.00
2023-01-04T11:15:47.739Z,14.10
2023-01-04T11:18:15.762Z,14.10
2023-01-04T11:20:43.116Z,14.00
2023-01-04T11:23:15.188Z,14.10
2023-01-04T11:25:56.110Z,14.10
2023-01-04T11:28:48.687Z,14.10
2023-01-04T11:31:28.901Z,14.10
2023-01-04T11:33:58.593Z,14.10
2023-01-04T11:36:31.521Z,14.10
2023-01-04T11:38:58.930Z,14.10
2023-01-04T11:41:26.746Z,14.10
2023-01-04T11:44:06.927Z,14.10
2023-01-04T11:46:35.058Z,14.20
2023-01-04T11:49:02.168Z,14.30
2023-01-04T11:51:29.104Z,14.30
2023-01-04T11:54:16.788Z,14.30
2023-01-04T11:57:12.078Z,14.40
2023-01-04T11:59:39.379Z,14.40
2023-01-04T12:05:29.101Z,14.20
2023-01-04T12:07:57.941Z,14.10
2023-01-04T12:10:27.248Z,14.10
2023-01-04T12:12:56.568Z,14.20
2023-01-04T12:15:53.756Z,14.20
2023-01-04T12:18:30.206Z,14.30
2023-01-04T12:20:57.655Z,14.30
2023-01-04T12:23:24.956Z,14.20
2023-01-04T12:25:53.530Z,14.20
2023-01-04T12:28:42.803Z,14.10
2023-01-04T12:31:22.407Z,14.10
2023-01-04T12:33:52.427Z,14.10
2023-01-04T12:36:21.464Z,14.20
2023-01-04T12:39:16.386Z,14.10
2023-01-04T12:41:45.296Z,14.10
2023-01-04T12:44:37.242Z,14.10
2023-01-04T12:47:37.879Z,14.10
2023-01-04T12:50:11.271Z,14.10
2023-01-04T12:55:37.705Z,14.10
2023-01-04T13:01:28.926Z,13.90
2023-01-04T13:04:22.854Z,13.80
2023-01-04T13:06:50.059Z,13.70
2023-01-04T13:09:24.221Z,13.60
2023-01-04T13:12:15.671Z,13.50
2023-01-04T13:14:51.698Z,13.50
2023-01-04T13:17:23.846Z,13.50
2023-01-04T13:20:19.694Z,13.60
2023-01-04T13:22:53.307Z,13.60
2023-01-04T13:25:21.692Z,13.60
2023-01-04T13:28:03.415Z,13.60
2023-01-04T13:30:40.569Z,13.60
2023-01-04T13:33:32.337Z,13.50
2023-01-04T13:36:12.148Z,13.50
2023-01-04T13:38:40.710Z,13.50
2023-01-04T13:41:20.926Z,13.50
2023-01-04T13:44:14.177Z,13.40
2023-01-04T13:46:43.468Z,13.30
2023-01-04T13:49:16.247Z,13.30
2023-01-04T13:51:43.283Z,13.30
2023-01-04T13:54:22.976Z,13.40
2023-01-04T13:59:42.127Z,13.50
2023-01-04T14:02:21.102Z,13.60
2023-01-04T14:04:50.832Z,13.70
2023-01-04T14:07:23.867Z,13.70
2023-01-04T14:09:54.729Z,13.70
2023-01-04T14:12:24.746Z,13.60
2023-01-04T14:14:56.231Z,13.60
2023-01-04T14:17:31.939Z,13.60
2023-01-04T14:20:15.415Z,13.50
2023-01-04T14:23:02.623Z,13.40
2023-01-04T14:25:37.220Z,13.10
2023-01-04T14:28:19.656Z,12.80
2023-01-04T14:30:56.046Z,12.60
2023-01-04T14:33:33.867Z,12.40
2023-01-04T14:36:04.925Z,12.30
2023-01-04T14:38:39.066Z,12.10
2023-01-04T14:41:18.161Z,12.10
2023-01-04T14:44:10.125Z,12.00
2023-01-04T14:46:37.272Z,11.90
2023-01-04T14:49:04.922Z,11.70
2023-01-04T14:51:38.582Z,11.70
2023-01-04T14:54:06.542Z,11.60
2023-01-04T14:56:34.480Z,11.60
2023-01-04T14:59:01.834Z,11.60
2023-01-04T15:01:28.751Z,11.70
2023-01-04T15:03:55.775Z,11.70
2023-01-04T15:06:22.799Z,11.80
2023-01-04T15:08:50.225Z,11.90
2023-01-04T15:11:17.839Z,11.90
2023-01-04T15:13:44.829Z,12.00
2023-01-04T15:16:16.023Z,12.00
2023-01-04T15:18:44.766Z,11.90
2023-01-04T15:21:12.881Z,11.90
2023-01-04T15:23:39.815Z,11.80
2023-01-04T15:26:09.128Z,11.80
2023-01-04T15:28:38.018Z,11.80
2023-01-04T15:31:13.422Z,11.90
2023-01-04T15:33:40.683Z,11.90
2023-01-04T15:36:11.565Z,12.00
2023-01-04T15:38:39.810Z,12.00
2023-01-04T15:41:33.057Z,12.10
2023-01-04T15:43:59.913Z,12.10
2023-01-04T15:46:26.958Z,12.10
2023-01-04T15:49:17.584Z,12.10
2023-01-04T15:51:45.419Z,12.10
2023-01-04T15:54:12.753Z,12.10
2023-01-04T15:56:40.449Z,12.10
2023-01-04T15:59:07.574Z,12.10
2023-01-04T16:01:34.592Z,12.10
2023-01-04T16:04:02.687Z,12.20
2023-01-04T16:06:29.689Z,12.10
2023-01-04T16:08:58.864Z,12.10
2023-01-04T16:11:25.862Z,12.10
2023-01-04T16:13:53.135Z,12.10
2023-01-04T16:16:22.538Z,12.10
2023-01-04T16:18:55.057Z,12.10
2023-01-04T16:21:27.669Z,12.20
2023-01-04T16:24:05.533Z,12.20
2023-01-04T16:26:36.998Z,12.10
2023-01-04T16:29:55.759Z,12.10
2023-01-04T16:32:22.691Z,12.10
2023-01-04T16:34:50.994Z,12.10
2023-01-04T16:37:18.759Z,12.10
2023-01-04T16:40:25.205Z,12.10
2023-01-04T16:42:52.316Z,12.10
2023-01-04T16:45:19.480Z,12.10
2023-01-04T16:47:46.562Z,12.10
2023-01-04T16:50:14.223Z,12.10
2023-01-04T16:52:41.286Z,12.10
2023-01-04T16:55:08.966Z,12.10
2023-01-04T16:57:36.141Z,12.10
2023-01-04T17:00:04.726Z,12.10
2023-01-04T17:02:31.772Z,12.00
2023-01-04T17:05:00.833Z,12.10
2023-01-04T17:07:32.555Z,12.10
2023-01-04T17:10:01.317Z,12.10
2023-01-04T17:15:41.815Z,12.10
2023-01-04T17:18:02.877Z,12.10
2023-01-04T17:21:11.106Z,12.10
2023-01-04T17:23:45.808Z,12.20
2023-01-04T17:26:19.190Z,12.10
2023-01-04T17:29:24.003Z,12.10
2023-01-04T17:31:51.176Z,12.10
2023-01-04T17:34:22.489Z,12.00
2023-01-04T17:36:49.917Z,12.00
2023-01-04T17:39:36.629Z,12.00
2023-01-04T17:42:03.538Z,12.00
2023-01-04T17:44:30.352Z,12.00
2023-01-04T17:46:57.269Z,11.90
2023-01-04T17:49:30.894Z,11.90
2023-01-04T17:51:59.021Z,11.80
2023-01-04T17:54:29.663Z,11.80
2023-01-04T17:56:56.741Z,11.70
2023-01-04T17:59:23.828Z,11.70
2023-01-04T18:01:50.974Z,11.60
2023-01-04T18:04:17.878Z,11.60
2023-01-04T18:06:44.745Z,11.70
2023-01-04T18:09:34.386Z,11.70
2023-01-04T18:12:01.223Z,11.80
2023-01-04T18:14:28.122Z,11.80
2023-01-04T18:16:58.687Z,11.90
2023-01-04T18:19:29.832Z,11.80
2023-01-04T18:21:57.184Z,11.80
2023-01-04T18:24:40.087Z,11.80
2023-01-04T18:27:27.684Z,11.90
2023-01-04T18:29:56.423Z,11.90
2023-01-04T18:32:24.998Z,12.00
2023-01-04T18:34:51.952Z,12.00
2023-01-04T18:37:19.516Z,12.10
2023-01-04T18:39:49.762Z,12.10
2023-01-04T18:42:17.087Z,12.10
2023-01-04T18:44:48.346Z,12.10
2023-01-04T18:47:21.187Z,12.10
2023-01-04T18:50:11.082Z,12.10
2023-01-04T18:52:37.930Z,12.00
2023-01-04T18:55:06.013Z,11.90
2023-01-04T18:57:33.088Z,11.80
2023-01-04T19:00:08.096Z,11.70
2023-01-04T19:02:35.349Z,11.70
2023-01-04T19:05:02.362Z,11.50
2023-01-04T19:07:29.209Z,11.50
2023-01-04T19:09:55.998Z,11.50
2023-01-04T19:12:22.911Z,11.50
2023-01-04T19:14:50.107Z,11.40
2023-01-04T19:17:17.453Z,11.40
2023-01-04T19:19:46.307Z,11.30
2023-01-04T19:22:13.248Z,11.40
2023-01-04T19:24:42.266Z,11.30
2023-01-04T19:27:09.328Z,11.30
2023-01-04T19:29:36.640Z,11.30
2023-01-04T19:32:03.679Z,11.30
2023-01-04T19:34:30.884Z,11.20
2023-01-04T19:36:57.926Z,11.20
2023-01-04T19:39:24.874Z,11.20
2023-01-04T19:41:51.739Z,11.10
2023-01-04T19:44:18.708Z,11.10
2023-01-04T19:46:45.565Z,11.00
2023-01-04T19:49:15.186Z,11.00
2023-01-04T19:51:47.215Z,11.00
2023-01-04T19:54:18.546Z,10.90
2023-01-04T19:56:50.143Z,10.90
2023-01-04T19:59:16.983Z,10.90
2023-01-04T20:01:44.007Z,10.90
2023-01-04T20:04:11.076Z,10.90
2023-01-04T20:06:38.857Z,10.90
2023-01-04T20:09:06.826Z,10.90
2023-01-04T20:11:33.720Z,10.80
2023-01-04T20:14:00.592Z,10.80
2023-01-04T20:16:28.692Z,10.80
2023-01-04T20:18:56.969Z,10.80
2023-01-04T20:21:25.984Z,10.80
2023-01-04T20:23:52.991Z,10.80
2023-01-04T20:26:19.957Z,10.70
2023-01-04T20:28:46.894Z,10.70
2023-01-04T20:31:16.426Z,10.70
2023-01-04T20:33:43.801Z,10.70
2023-01-04T20:36:16.612Z,10.70
2023-01-04T20:38:46.260Z,10.80
2023-01-04T20:41:18.887Z,10.70
2023-01-04T20:43:47.510Z,10.70
2023-01-04T20:46:20.436Z,10.70
2023-01-04T20:48:47.800Z,10.60
2023-01-04T20:51:17.801Z,10.60
2023-01-04T20:53:45.264Z,10.50
2023-01-04T20:56:22.210Z,10.50
2023-01-04T20:58:50.288Z,10.50
2023-01-04T21:01:18.729Z,10.50
2023-01-04T21:03:45.766Z,10.50
2023-01-04T21:06:16.031Z,10.40
2023-01-04T21:08:44.411Z,10.40
2023-01-04T21:11:12.843Z,10.40
2023-01-04T21:13:40.171Z,10.40
2023-01-04T21:16:07.302Z,10.40
2023-01-04T21:18:35.335Z,10.40
2023-01-04T21:21:13.846Z,10.40
2023-01-04T21:23:42.095Z,10.40
2023-01-04T21:26:15.674Z,10.40
2023-01-04T21:28:42.517Z,10.40
2023-01-04T21:31:16.168Z,10.40
2023-01-04T21:33:45.922Z,10.40
2023-01-04T21:36:15.300Z,10.50
2023-01-04T21:38:42.405Z,10.50
2023-01-04T21:41:12.138Z,10.50
2023-01-04T21:43:39.830Z,10.60
2023-01-04T21:46:15.936Z,10.60
2023-01-04T21:48:45.104Z,10.60
2023-01-04T21:51:12.909Z,10.60
2023-01-04T21:53:40.926Z,10.60
2023-01-04T21:56:10.965Z,10.60
2023-01-04T21:58:39.840Z,10.60
2023-01-04T22:01:19.010Z,10.60
2023-01-04T22:03:46.011Z,10.50
2023-01-04T22:06:14.069Z,10.50
2023-01-04T22:08:46.281Z,10.50
2023-01-04T22:11:13.828Z,10.50
2023-01-04T22:13:40.754Z,10.50
2023-01-04T22:16:09.900Z,10.50
2023-01-04T22:18:37.528Z,10.60
2023-01-04T22:21:13.671Z,10.60
2023-01-04T22:23:40.871Z,10.60
2023-01-04T22:26:08.173Z,10.50
2023-01-04T22:28:37.314Z,10.50
2023-01-04T22:31:10.268Z,10.50
2023-01-04T22:33:37.960Z,10.50
2023-01-04T22:36:17.179Z,10.50
2023-01-04T22:38:50.173Z,10.50
2023-01-04T22:41:19.182Z,10.50
2023-01-04T22:43:46.357Z,10.40
2023-01-04T22:46:16.182Z,10.40
2023-01-04T22:48:43.852Z,10.40
2023-01-04T22:51:13.494Z,10.40
2023-01-04T22:53:41.016Z,10.30
2023-01-04T22:56:20.274Z,10.40
2023-01-04T22:58:53.452Z,10.40
2023-01-04T23:01:25.528Z,10.40
2023-01-04T23:03:52.749Z,10.40
2023-01-04T23:06:20.034Z,10.40
2023-01-04T23:08:47.175Z,10.30
2023-01-04T23:11:16.750Z,10.30
2023-01-04T23:13:43.870Z,10.30
2023-01-04T23:16:13.714Z,10.30
2023-01-04T23:18:40.787Z,10.30
2023-01-04T23:21:08.085Z,10.20
2023-01-04T23:23:35.093Z,10.30
2023-01-04T23:26:15.054Z,10.40
2023-01-04T23:28:43.325Z,10.40
2023-01-04T23:31:13.448Z,10.40
2023-01-04T23:33:40.812Z,10.50
2023-01-04T23:36:20.331Z,10.40
2023-01-04T23:38:52.795Z,10.40
2023-01-04T23:41:19.984Z,10.40
2023-01-04T23:43:46.863Z,10.40
2023-01-04T23:46:16.131Z,10.40
2023-01-04T23:48:44.577Z,10.50
2023-01-04T23:51:14.886Z,10.50
2023-01-04T23:53:41.837Z,10.70
2023-01-04T23:56:14.717Z,10.70
2023-01-04T23:58:42.304Z,10.80
